createdAt,value
2022-08-05T00:01:36.511Z,80.12
2022-08-05T00:04:17.077Z,79.13
2022-08-05T00:06:43.916Z,79.74
2022-08-05T00:09:13.196Z,79.31
2022-08-05T00:11:49.177Z,79.58
2022-08-05T00:14:21.825Z,79.95
2022-08-05T00:16:54.324Z,79.55
2022-08-05T00:19:25.052Z,79.28
2022-08-05T00:21:59.629Z,80.42
2022-08-05T00:24:30.698Z,80.73
2022-08-05T00:26:58.733Z,79.79
2022-08-05T00:29:25.956Z,79.87
2022-08-05T00:32:12.551Z,80.86
2022-08-05T00:34:53.953Z,80.20
2022-08-05T00:37:50.856Z,80.14
2022-08-05T00:40:17.655Z,80.70
2022-08-05T00:42:53.461Z,81.05
2022-08-05T00:45:25.031Z,80.79
2022-08-05T00:48:07.137Z,81.22
2022-08-05T00:50:34.157Z,80.88
2022-08-05T00:53:00.852Z,81.12
2022-08-05T00:55:42.243Z,81.31
2022-08-05T00:58:11.196Z,81.11
2022-08-05T01:00:39.015Z,80.66
2022-08-05T01:03:07.637Z,81.32
2022-08-05T01:05:35.083Z,81.16
2022-08-05T01:08:41.181Z,81.15
2022-08-05T01:10:53.984Z,81.45
2022-08-05T01:13:57.997Z,81.39
2022-08-05T01:16:33.879Z,81.26
2022-08-05T01:19:11.559Z,81.30
2022-08-05T01:21:55.520Z,81.54
2022-08-05T01:24:56.300Z,81.33
2022-08-05T01:27:50.474Z,81.27
2022-08-05T01:30:34.800Z,81.00
2022-08-05T01:33:06.079Z,81.67
2022-08-05T01:35:52.039Z,81.59
2022-08-05T01:38:27.452Z,81.39
2022-08-05T01:40:58.736Z,81.48
2022-08-05T01:43:27.786Z,81.38
2022-08-05T01:45:57.048Z,81.62
2022-08-05T01:48:26.850Z,81.63
2022-08-05T01:50:56.393Z,82.17
2022-08-05T01:53:58.025Z,82.57
2022-08-05T01:56:13.338Z,82.89
2022-08-05T01:59:02.438Z,82.57
2022-08-05T02:01:40.321Z,82.98
2022-08-05T02:04:10.498Z,83.77
2022-08-05T02:06:38.979Z,83.31
2022-08-05T02:09:07.122Z,82.99
2022-08-05T02:11:47.800Z,82.98
2022-08-05T02:14:26.288Z,83.37
2022-08-05T02:16:55.347Z,83.80
2022-08-05T02:19:34.548Z,83.70
2022-08-05T02:22:25.584Z,84.12
2022-08-05T02:25:01.999Z,83.74
2022-08-05T02:27:57.908Z,83.93
2022-08-05T02:30:22.372Z,84.12
2022-08-05T02:32:52.436Z,84.15
2022-08-05T02:35:28.198Z,84.86
2022-08-05T02:38:02.367Z,84.81
2022-08-05T02:40:29.983Z,84.49
2022-08-05T02:42:58.712Z,85.03
2022-08-05T02:45:26.268Z,85.31
2022-08-05T02:48:07.357Z,85.33
2022-08-05T02:50:43.699Z,85.61
2022-08-05T02:53:11.764Z,85.37
2022-08-05T02:55:53.802Z,85.70
2022-08-05T02:58:24.611Z,85.61
2022-08-05T03:00:55.883Z,85.73
2022-08-05T03:03:23.683Z,85.60
2022-08-05T03:06:55.389Z,86.04
2022-08-05T03:08:42.677Z,85.04
2022-08-05T03:11:56.215Z,85.31
2022-08-05T03:14:13.473Z,86.11
2022-08-05T03:16:40.358Z,85.99
2022-08-05T03:19:16.895Z,86.14
2022-08-05T03:21:53.224Z,86.06
2022-08-05T03:24:26.826Z,86.23
2022-08-05T03:26:57.206Z,86.00
2022-08-05T03:29:23.857Z,86.09
2022-08-05T03:31:56.839Z,86.09
2022-08-05T03:34:27.848Z,85.99
2022-08-05T03:36:55.136Z,86.15
2022-08-05T03:39:27.117Z,86.30
2022-08-05T03:41:56.116Z,86.45
2022-08-05T03:44:23.553Z,86.23
2022-08-05T03:46:49.951Z,86.24
2022-08-05T03:49:16.412Z,86.61
2022-08-05T03:52:36.991Z,87.16
2022-08-05T03:56:04.437Z,87.26
2022-08-05T03:58:03.051Z,87.01
2022-08-05T04:00:32.316Z,87.18
2022-08-05T04:03:01.464Z,87.48
2022-08-05T04:05:33.283Z,87.34
2022-08-05T04:08:14.828Z,87.31
2022-08-05T04:10:52.674Z,87.71
2022-08-05T04:13:21.568Z,88.13
2022-08-05T04:15:52.706Z,88.06
2022-08-05T04:18:30.269Z,88.40
2022-08-05T04:20:57.659Z,88.21
2022-08-05T04:24:00.198Z,88.07
2022-08-05T04:26:13.881Z,88.00
2022-08-05T04:28:50.823Z,88.27
2022-08-05T04:31:18.934Z,88.62
2022-08-05T04:34:18.751Z,88.28
2022-08-05T04:36:44.732Z,88.35
2022-08-05T04:39:13.430Z,87.96
2022-08-05T04:41:39.909Z,87.55
2022-08-05T04:44:08.817Z,87.37
2022-08-05T04:46:36.349Z,87.17
2022-08-05T04:49:02.755Z,87.56
2022-08-05T04:51:30.636Z,87.46
2022-08-05T04:53:57.337Z,87.92
2022-08-05T04:56:34.929Z,87.26
2022-08-05T04:59:21.754Z,86.92
2022-08-05T05:02:07.481Z,86.61
2022-08-05T05:04:38.509Z,86.30
2022-08-05T05:07:11.636Z,86.40
2022-08-05T05:09:42.352Z,86.92
2022-08-05T05:12:10.822Z,86.17
2022-08-05T05:14:38.070Z,86.27
2022-08-05T05:17:18.703Z,86.38
2022-08-05T05:19:50.135Z,86.04
2022-08-05T05:22:24.151Z,86.50
2022-08-05T05:24:57.732Z,85.90
2022-08-05T05:27:45.168Z,85.35
2022-08-05T05:30:15.454Z,84.99
2022-08-05T05:32:56.997Z,84.01
2022-08-05T05:35:27.745Z,84.49
2022-08-05T05:38:01.305Z,84.50
2022-08-05T05:40:29.901Z,83.94
2022-08-05T05:42:57.077Z,84.69
2022-08-05T05:45:24.552Z,83.96
2022-08-05T05:48:06.424Z,84.08
2022-08-05T05:50:43.979Z,84.01
2022-08-05T05:53:21.587Z,83.69
2022-08-05T05:55:51.980Z,81.84
2022-08-05T05:58:32.122Z,81.75
2022-08-05T06:01:04.905Z,82.89
2022-08-05T06:04:01.226Z,82.15
2022-08-05T06:06:27.756Z,81.91
2022-08-05T06:08:54.502Z,81.07
2022-08-05T06:11:20.965Z,80.52
2022-08-05T06:13:50.434Z,79.90
2022-08-05T06:16:29.648Z,79.23
2022-08-05T06:19:05.422Z,77.00
2022-08-05T06:21:36.983Z,76.69
2022-08-05T06:24:12.271Z,76.41
2022-08-05T06:26:51.370Z,75.01
2022-08-05T06:29:25.145Z,73.25
2022-08-05T06:32:21.081Z,73.05
2022-08-05T06:34:48.197Z,72.24
2022-08-05T06:37:20.216Z,72.02
2022-08-05T06:40:07.031Z,71.29
2022-08-05T06:42:33.478Z,70.11
2022-08-05T06:44:59.966Z,71.67
2022-08-05T06:48:37.162Z,72.39
2022-08-05T06:50:18.201Z,72.86
2022-08-05T06:52:44.530Z,70.54
2022-08-05T06:55:25.263Z,71.30
2022-08-05T06:58:02.241Z,70.02
2022-08-05T07:00:31.352Z,69.36
2022-08-05T07:02:57.755Z,69.72
2022-08-05T07:05:27.571Z,67.03
2022-08-05T07:08:03.634Z,63.73
2022-08-05T07:10:32.768Z,65.03
2022-08-05T07:13:56.859Z,65.40
2022-08-05T07:17:57.371Z,64.43
2022-08-05T07:19:11.407Z,63.49
2022-08-05T07:22:00.383Z,62.48
2022-08-05T07:24:28.733Z,62.83
2022-08-05T07:26:56.910Z,63.37
2022-08-05T07:29:25.350Z,62.39
2022-08-05T07:32:11.987Z,60.78
2022-08-05T07:34:42.438Z,58.57
2022-08-05T07:37:09.144Z,56.28
2022-08-05T07:40:04.419Z,55.17
2022-08-05T07:42:33.379Z,52.69
2022-08-05T07:45:01.090Z,54.69
2022-08-05T07:47:27.534Z,52.19
2022-08-05T07:50:09.345Z,50.39
2022-08-05T07:52:40.363Z,48.42
2022-08-05T07:55:15.684Z,45.17
2022-08-05T07:57:58.889Z,46.94
2022-08-05T08:00:29.337Z,47.90
2022-08-05T08:03:14.637Z,47.96
2022-08-05T08:05:49.454Z,44.28
2022-08-05T08:08:16.356Z,44.49
2022-08-05T08:10:48.952Z,44.79
2022-08-05T08:13:22.111Z,42.82
2022-08-05T08:16:35.038Z,45.77
2022-08-05T08:18:42.445Z,46.33
2022-08-05T08:21:17.617Z,47.07
2022-08-05T08:24:03.939Z,46.21
2022-08-05T08:26:30.628Z,45.23
2022-08-05T08:28:59.792Z,46.93
2022-08-05T08:31:36.175Z,47.21
2022-08-05T08:34:02.811Z,47.15
2022-08-05T08:36:37.625Z,45.92
2022-08-05T08:39:15.074Z,42.84
2022-08-05T08:41:51.119Z,44.03
2022-08-05T08:45:22.543Z,47.79
2022-08-05T08:47:21.841Z,48.55
2022-08-05T08:50:23.287Z,50.20
2022-08-05T08:53:08.052Z,51.91
2022-08-05T08:56:04.713Z,52.14
2022-08-05T08:58:43.415Z,51.07
2022-08-05T09:01:16.225Z,49.52
2022-08-05T09:03:46.227Z,50.06
2022-08-05T09:06:17.176Z,50.53
2022-08-05T09:08:46.783Z,43.40
2022-08-05T09:11:14.767Z,42.15
2022-08-05T09:14:10.183Z,42.13
2022-08-05T09:16:29.946Z,40.74
2022-08-05T09:18:57.151Z,39.11
2022-08-05T09:22:24.908Z,39.49
2022-08-05T09:24:15.411Z,41.23
2022-08-05T09:26:43.704Z,41.18
2022-08-05T09:29:10.706Z,39.76
2022-08-05T09:32:40.694Z,41.34
2022-08-05T09:34:54.945Z,45.61
2022-08-05T09:38:12.872Z,44.06
2022-08-05T09:40:29.868Z,46.42
2022-08-05T09:42:59.443Z,42.58
2022-08-05T09:46:07.853Z,43.81
2022-08-05T09:48:30.178Z,45.03
2022-08-05T09:51:02.259Z,45.71
2022-08-05T09:53:54.923Z,46.44
2022-08-05T09:56:34.027Z,47.54
2022-08-05T09:59:09.178Z,49.93
2022-08-05T10:01:45.876Z,46.68
2022-08-05T10:04:16.117Z,44.69
2022-08-05T10:06:58.949Z,45.08
2022-08-05T10:09:28.188Z,43.97
2022-08-05T10:12:18.898Z,42.94
2022-08-05T10:15:12.719Z,40.63
2022-08-05T10:17:47.180Z,43.32
2022-08-05T10:20:23.789Z,41.72
2022-08-05T10:22:51.773Z,44.40
2022-08-05T10:25:19.617Z,43.32
2022-08-05T10:28:13.250Z,46.24
2022-08-05T10:31:20.275Z,46.37
2022-08-05T10:33:24.095Z,46.08
2022-08-05T10:35:59.636Z,47.85
2022-08-05T10:38:28.414Z,48.48
2022-08-05T10:41:12.440Z,49.80
2022-08-05T10:43:57.465Z,42.70
2022-08-05T10:46:54.695Z,41.35
2022-08-05T10:49:26.978Z,39.59
2022-08-05T10:52:02.746Z,39.34
2022-08-05T10:55:10.236Z,36.47
2022-08-05T10:57:44.696Z,34.88
2022-08-05T11:00:22.893Z,36.96
2022-08-05T11:03:23.362Z,35.55
2022-08-05T11:06:15.913Z,36.97
2022-08-05T11:09:32.453Z,37.49
2022-08-05T11:12:45.416Z,38.02
2022-08-05T11:15:59.523Z,37.65
2022-08-05T11:18:30.141Z,37.24
2022-08-05T11:20:59.814Z,38.37
2022-08-05T11:23:33.734Z,36.66
2022-08-05T11:26:17.152Z,38.61
2022-08-05T11:28:56.363Z,40.00
2022-08-05T11:31:57.835Z,39.23
2022-08-05T11:34:18.066Z,37.30
2022-08-05T11:36:52.586Z,34.46
2022-08-05T11:39:49.778Z,35.99
2022-08-05T11:42:24.203Z,35.09
2022-08-05T11:45:05.352Z,35.72
2022-08-05T11:47:49.446Z,38.57
2022-08-05T11:50:17.683Z,36.36
2022-08-05T11:52:46.153Z,38.59
2022-08-05T11:55:16.256Z,38.28
2022-08-05T11:58:10.797Z,40.86
2022-08-05T12:00:38.181Z,42.45
2022-08-05T12:03:29.308Z,43.04
2022-08-05T12:06:06.598Z,45.16
2022-08-05T12:08:57.331Z,43.36
2022-08-05T12:11:40.452Z,44.33
2022-08-05T12:14:10.314Z,41.71
2022-08-05T12:16:45.430Z,41.27
2022-08-05T12:20:25.498Z,38.15
2022-08-05T12:22:01.264Z,39.27
2022-08-05T12:24:27.750Z,38.86
2022-08-05T12:26:54.706Z,35.32
2022-08-05T12:29:23.863Z,36.78
2022-08-05T12:31:53.860Z,40.45
2022-08-05T12:34:26.663Z,42.51
2022-08-05T12:36:54.796Z,45.76
2022-08-05T12:39:23.645Z,41.77
2022-08-05T12:42:00.686Z,43.10
2022-08-05T12:44:33.146Z,43.52
2022-08-05T12:47:01.993Z,44.23
2022-08-05T12:50:02.069Z,47.32
2022-08-05T12:52:38.507Z,45.35
2022-08-05T12:55:37.055Z,48.26
2022-08-05T12:58:52.685Z,43.77
2022-08-05T13:02:00.553Z,46.31
2022-08-05T13:03:41.413Z,43.64
2022-08-05T13:06:15.848Z,47.89
2022-08-05T13:08:49.084Z,45.69
2022-08-05T13:11:47.017Z,43.77
2022-08-05T13:14:24.717Z,48.41
2022-08-05T13:17:02.364Z,45.61
2022-08-05T13:19:52.148Z,46.42
2022-08-05T13:22:28.299Z,47.20
2022-08-05T13:24:58.221Z,49.30
2022-08-05T13:27:38.233Z,49.91
2022-08-05T13:30:34.318Z,48.53
2022-08-05T13:32:56.503Z,47.52
2022-08-05T13:35:42.930Z,44.64
2022-08-05T13:38:10.210Z,48.73
2022-08-05T13:40:50.048Z,46.39
2022-08-05T13:43:22.154Z,48.01
2022-08-05T13:45:48.734Z,48.30
2022-08-05T13:48:58.677Z,45.05
2022-08-05T13:51:13.354Z,47.11
2022-08-05T13:53:48.133Z,48.68
2022-08-05T13:56:18.816Z,49.52
2022-08-05T13:58:52.749Z,48.57
2022-08-05T14:01:19.727Z,49.31
2022-08-05T14:04:12.664Z,51.04
2022-08-05T14:06:41.068Z,49.99
2022-08-05T14:09:14.294Z,54.95
2022-08-05T14:12:03.949Z,51.99
2022-08-05T14:14:32.517Z,46.79
2022-08-05T14:17:00.348Z,46.88
2022-08-05T14:19:27.212Z,48.29
2022-08-05T14:22:09.530Z,48.07
2022-08-05T14:24:39.789Z,47.90
2022-08-05T14:27:17.466Z,47.42
2022-08-05T14:29:44.939Z,48.69
2022-08-05T14:32:27.716Z,49.98
2022-08-05T14:34:54.648Z,52.80
2022-08-05T14:37:23.699Z,51.99
2022-08-05T14:40:10.634Z,52.20
2022-08-05T14:42:41.216Z,48.84
2022-08-05T14:45:09.978Z,49.64
2022-08-05T14:48:03.318Z,49.04
2022-08-05T14:50:23.064Z,50.72
2022-08-05T14:52:56.858Z,47.25
2022-08-05T14:55:25.078Z,48.53
2022-08-05T14:57:54.650Z,51.42
2022-08-05T15:00:27.914Z,52.41
2022-08-05T15:02:56.167Z,51.99
2022-08-05T15:05:29.890Z,56.40
2022-08-05T15:08:11.459Z,55.25
2022-08-05T15:10:43.332Z,52.44
2022-08-05T15:13:12.605Z,54.33
2022-08-05T15:15:54.943Z,52.34
2022-08-05T15:18:22.501Z,54.11
2022-08-05T15:20:49.554Z,54.52
2022-08-05T15:23:16.001Z,55.04
2022-08-05T15:25:53.848Z,53.40
2022-08-05T15:28:24.419Z,53.23
2022-08-05T15:30:54.610Z,52.75
2022-08-05T15:34:04.060Z,54.30
2022-08-05T15:36:16.874Z,55.34
2022-08-05T15:38:45.644Z,55.56
2022-08-05T15:41:21.997Z,52.17
2022-08-05T15:43:50.987Z,55.79
2022-08-05T15:46:19.742Z,53.85
2022-08-05T15:48:51.993Z,55.41
2022-08-05T15:52:12.505Z,54.64
2022-08-05T15:54:15.243Z,56.10
2022-08-05T15:56:42.298Z,55.29
2022-08-05T15:59:20.009Z,55.12
2022-08-05T16:01:52.551Z,52.57
2022-08-05T16:04:25.747Z,52.71
2022-08-05T16:06:53.762Z,51.55
2022-08-05T16:09:22.176Z,52.71
2022-08-05T16:11:52.847Z,49.40
2022-08-05T16:14:20.256Z,51.95
2022-08-05T16:16:47.243Z,55.16
2022-08-05T16:19:25.458Z,54.24
2022-08-05T16:22:03.018Z,54.04
2022-08-05T16:24:41.380Z,54.25
2022-08-05T16:27:16.945Z,54.11
2022-08-05T16:29:50.248Z,55.16
2022-08-05T16:32:17.587Z,51.09
2022-08-05T16:34:55.226Z,55.48
2022-08-05T16:38:16.013Z,52.07
2022-08-05T16:40:13.600Z,52.25
2022-08-05T16:42:52.052Z,52.13
2022-08-05T16:46:07.828Z,54.71
2022-08-05T16:48:05.050Z,51.27
2022-08-05T16:50:31.445Z,49.97
2022-08-05T16:52:57.866Z,50.11
2022-08-05T16:55:24.618Z,51.21
2022-08-05T16:58:00.012Z,50.49
2022-08-05T17:00:34.940Z,52.32
2022-08-05T17:03:15.332Z,49.27
2022-08-05T17:05:53.374Z,50.53
2022-08-05T17:08:35.806Z,54.33
2022-08-05T17:11:12.867Z,51.23
2022-08-05T17:13:44.077Z,51.50
2022-08-05T17:16:29.831Z,52.77
2022-08-05T17:18:57.036Z,53.74
2022-08-05T17:21:23.733Z,52.90
2022-08-05T17:24:04.289Z,54.37
2022-08-05T17:26:35.477Z,54.84
2022-08-05T17:29:07.377Z,54.99
2022-08-05T17:31:41.375Z,54.25
2022-08-05T17:34:29.821Z,55.30
2022-08-05T17:36:59.663Z,56.05
2022-08-05T17:39:34.743Z,56.87
2022-08-05T17:42:18.348Z,57.47
2022-08-05T17:44:51.252Z,56.23
2022-08-05T17:47:22.950Z,58.49
2022-08-05T17:49:59.738Z,56.84
2022-08-05T17:52:31.446Z,56.57
2022-08-05T17:54:57.905Z,56.04
2022-08-05T17:57:24.527Z,56.20
2022-08-05T18:00:05.232Z,58.16
2022-08-05T18:02:33.097Z,57.15
2022-08-05T18:05:06.481Z,58.88
2022-08-05T18:07:41.218Z,57.22
2022-08-05T18:10:11.251Z,57.82
2022-08-05T18:12:38.782Z,58.23
2022-08-05T18:15:06.277Z,58.36
2022-08-05T18:18:01.117Z,59.37
2022-08-05T18:20:29.198Z,60.61
2022-08-05T18:22:58.711Z,60.25
2022-08-05T18:25:34.653Z,61.21
2022-08-05T18:28:05.052Z,59.83
2022-08-05T18:30:33.094Z,61.52
2022-08-05T18:33:00.348Z,61.17
2022-08-05T18:36:01.269Z,60.58
2022-08-05T18:38:19.431Z,60.24
2022-08-05T18:41:57.045Z,59.33
2022-08-05T18:43:43.073Z,59.08
2022-08-05T18:46:20.667Z,60.94
2022-08-05T18:48:52.275Z,60.78
2022-08-05T18:52:06.033Z,61.07
2022-08-05T18:54:31.018Z,61.17
2022-08-05T18:56:59.885Z,61.74
2022-08-05T18:59:44.357Z,60.50
2022-08-05T19:02:26.786Z,61.84
2022-08-05T19:05:02.672Z,61.06
2022-08-05T19:07:46.497Z,62.35
2022-08-05T19:10:14.307Z,61.90
2022-08-05T19:12:41.168Z,62.28
2022-08-05T19:15:10.647Z,62.28
2022-08-05T19:18:10.080Z,62.75
2022-08-05T19:20:41.466Z,62.03
2022-08-05T19:24:04.170Z,63.20
2022-08-05T19:26:02.102Z,63.43
2022-08-05T19:28:32.854Z,64.03
2022-08-05T19:31:00.198Z,65.02
2022-08-05T19:33:33.947Z,65.11
2022-08-05T19:36:02.582Z,65.36
2022-08-05T19:38:28.939Z,65.92
2022-08-05T19:40:55.338Z,66.62
2022-08-05T19:44:04.251Z,65.03
2022-08-05T19:46:27.235Z,64.72
2022-08-05T19:48:57.323Z,66.28
2022-08-05T19:52:05.490Z,65.52
2022-08-05T19:54:21.838Z,65.26
2022-08-05T19:56:56.170Z,66.70
2022-08-05T19:59:56.618Z,67.39
2022-08-05T20:02:09.320Z,66.99
2022-08-05T20:04:37.878Z,68.77
2022-08-05T20:07:13.652Z,68.71
2022-08-05T20:09:54.029Z,68.52
2022-08-05T20:12:22.713Z,68.08
2022-08-05T20:14:52.419Z,69.10
2022-08-05T20:17:19.286Z,68.04
2022-08-05T20:19:50.202Z,68.65
2022-08-05T20:22:16.769Z,69.11
2022-08-05T20:24:45.730Z,69.55
2022-08-05T20:27:12.859Z,69.71
2022-08-05T20:29:42.240Z,70.34
2022-08-05T20:32:24.709Z,69.92
2022-08-05T20:34:51.416Z,70.87
2022-08-05T20:38:06.705Z,69.18
2022-08-05T20:40:10.231Z,70.89
2022-08-05T20:42:37.396Z,70.22
2022-08-05T20:45:05.461Z,70.92
2022-08-05T20:47:32.690Z,70.52
2022-08-05T20:50:02.179Z,70.58
2022-08-05T20:52:29.132Z,70.73
2022-08-05T20:55:15.912Z,70.84
2022-08-05T20:57:44.313Z,71.82
2022-08-05T21:00:40.764Z,72.24
2022-08-05T21:03:04.468Z,72.28
2022-08-05T21:05:48.142Z,72.50
2022-08-05T21:08:20.802Z,72.91
2022-08-05T21:10:53.381Z,73.22
2022-08-05T21:13:26.403Z,74.12
2022-08-05T21:16:06.390Z,74.13
2022-08-05T21:18:32.790Z,74.48
2022-08-05T21:20:59.496Z,74.81
2022-08-05T21:23:25.867Z,75.30
2022-08-05T21:25:55.333Z,75.35
2022-08-05T21:28:23.671Z,75.74
2022-08-05T21:30:50.536Z,75.73
2022-08-05T21:33:22.117Z,76.03
2022-08-05T21:35:55.729Z,76.37
2022-08-05T21:38:26.512Z,76.39
2022-08-05T21:40:52.907Z,76.95
2022-08-05T21:43:24.876Z,77.42
2022-08-05T21:45:57.561Z,77.42
2022-08-05T21:48:31.790Z,78.26
2022-08-05T21:50:58.538Z,77.86
2022-08-05T21:53:27.482Z,77.94
2022-08-05T21:56:04.909Z,77.87
2022-08-05T21:58:36.936Z,78.17
2022-08-05T22:01:10.540Z,77.89
2022-08-05T22:03:51.620Z,78.91
2022-08-05T22:06:22.449Z,79.25
2022-08-05T22:08:50.546Z,79.07
2022-08-05T22:11:18.880Z,79.20
2022-08-05T22:14:05.829Z,79.46
2022-08-05T22:16:51.638Z,79.59
2022-08-05T22:20:00.917Z,80.34
2022-08-05T22:22:06.605Z,79.99
2022-08-05T22:24:53.602Z,80.22
2022-08-05T22:28:10.295Z,80.80
2022-08-05T22:30:35.265Z,80.79
2022-08-05T22:33:03.554Z,81.02
2022-08-05T22:35:31.033Z,81.01
2022-08-05T22:38:05.704Z,81.08
2022-08-05T22:40:36.468Z,81.65
2022-08-05T22:43:03.023Z,81.43
2022-08-05T22:45:31.427Z,81.86
2022-08-05T22:47:59.372Z,82.29
2022-08-05T22:50:26.792Z,82.68
2022-08-05T22:52:55.159Z,82.80
2022-08-05T22:55:23.555Z,83.07
2022-08-05T22:57:53.984Z,83.80
2022-08-05T23:00:23.317Z,83.71
2022-08-05T23:02:51.962Z,83.85
2022-08-05T23:05:19.358Z,84.04
2022-08-05T23:07:50.206Z,84.55
2022-08-05T23:10:20.298Z,84.76
2022-08-05T23:12:54.744Z,84.96
2022-08-05T23:15:29.227Z,85.14
2022-08-05T23:18:01.024Z,85.41
2022-08-05T23:20:28.339Z,85.61
2022-08-05T23:22:55.958Z,85.55
2022-08-05T23:25:53.204Z,86.04
2022-08-05T23:28:10.211Z,86.01
2022-08-05T23:30:40.539Z,86.27
2022-08-05T23:33:16.317Z,86.46
2022-08-05T23:35:48.726Z,86.25
2022-08-05T23:38:15.976Z,86.53
2022-08-05T23:40:50.066Z,86.68
2022-08-05T23:43:25.700Z,86.85
2022-08-05T23:46:03.918Z,86.96
2022-08-05T23:48:30.306Z,87.05
2022-08-05T23:50:56.684Z,86.73
2022-08-05T23:53:28.573Z,86.98
2022-08-05T23:56:11.564Z,87.52
2022-08-05T23:58:38.390Z,87.44
